createdAt,value
2018-06-15T00:01:19.596Z,3.80
2018-06-15T00:03:52.588Z,3.77
2018-06-15T00:06:25.598Z,3.27
2018-06-15T00:08:58.603Z,3.53
2018-06-15T00:11:31.614Z,3.30
2018-06-15T00:14:04.619Z,3.50
2018-06-15T00:16:37.622Z,3.77
2018-06-15T00:19:10.643Z,3.37
2018-06-15T00:21:43.684Z,4.03
2018-06-15T00:24:16.710Z,3.40
2018-06-15T00:26:49.731Z,3.10
2018-06-15T00:29:22.799Z,4.03
2018-06-15T00:31:55.746Z,4.43
2018-06-15T00:34:28.782Z,4.10
2018-06-15T00:37:01.774Z,3.80
2018-06-15T00:39:34.810Z,4.23
2018-06-15T00:42:07.826Z,4.77
2018-06-15T00:44:40.838Z,4.80
2018-06-15T00:47:13.829Z,4.60
2018-06-15T00:49:46.818Z,4.77
2018-06-15T00:52:19.850Z,4.60
2018-06-15T00:54:52.829Z,4.80
2018-06-15T00:57:37.474Z,5.30
2018-06-15T01:00:10.460Z,4.77
2018-06-15T01:02:43.503Z,4.50
2018-06-15T01:05:16.485Z,5.30
2018-06-15T01:07:49.577Z,5.77
2018-06-15T01:10:22.560Z,6.10
2018-06-15T01:12:55.565Z,5.50
2018-06-15T01:15:28.560Z,5.97
2018-06-15T01:18:01.570Z,6.60
2018-06-15T01:20:34.635Z,5.70
2018-06-15T01:23:07.681Z,5.93
2018-06-15T01:25:40.714Z,7.27
2018-06-15T01:28:13.731Z,6.50
2018-06-15T01:30:46.747Z,8.30
2018-06-15T01:33:19.788Z,6.80
2018-06-15T01:35:52.798Z,7.37
2018-06-15T01:38:25.818Z,6.83
2018-06-15T01:40:58.852Z,6.53
2018-06-15T01:43:31.865Z,6.53
2018-06-15T01:46:04.874Z,6.57
2018-06-15T01:48:37.903Z,6.77
2018-06-15T01:51:10.917Z,6.30
2018-06-15T01:53:43.941Z,6.53
2018-06-15T01:56:16.969Z,6.37
2018-06-15T01:58:50.019Z,5.83
2018-06-15T02:01:23.150Z,5.87
2018-06-15T02:03:56.107Z,6.70
2018-06-15T02:06:29.162Z,6.83
2018-06-15T02:09:02.174Z,6.33
2018-06-15T02:11:35.178Z,6.70
2018-06-15T02:14:08.243Z,6.53
2018-06-15T02:16:41.269Z,5.90
2018-06-15T02:19:14.278Z,5.83
2018-06-15T02:21:47.285Z,6.70
2018-06-15T02:24:20.356Z,6.30
2018-06-15T02:26:53.354Z,6.60
2018-06-15T02:29:26.358Z,6.90
2018-06-15T02:32:12.717Z,6.70
2018-06-15T02:34:45.749Z,6.43
2018-06-15T02:37:18.768Z,7.27
2018-06-15T02:39:51.799Z,6.93
2018-06-15T02:42:24.814Z,7.70
2018-06-15T02:44:57.830Z,7.60
2018-06-15T02:47:30.818Z,7.30
2018-06-15T02:50:03.930Z,8.53
2018-06-15T02:52:36.970Z,8.63
2018-06-15T02:55:10.024Z,7.67
2018-06-15T02:57:43.062Z,8.93
2018-06-15T03:00:16.076Z,8.53
2018-06-15T03:02:49.102Z,9.03
2018-06-15T03:05:22.134Z,9.57
2018-06-15T03:07:55.141Z,7.90
2018-06-15T03:10:28.165Z,8.20
2018-06-15T03:13:01.180Z,8.60
2018-06-15T03:15:34.190Z,9.63
2018-06-15T03:18:07.192Z,9.07
2018-06-15T03:20:40.234Z,9.30
2018-06-15T03:23:13.247Z,8.57
2018-06-15T03:25:46.303Z,9.10
2018-06-15T03:28:19.319Z,8.87
2018-06-15T03:30:52.340Z,8.80
2018-06-15T03:33:25.367Z,9.27
2018-06-15T03:35:58.406Z,8.93
2018-06-15T03:38:31.413Z,8.90
2018-06-15T03:41:04.763Z,8.43
2018-06-15T03:43:37.777Z,9.80
2018-06-15T03:46:10.798Z,9.93
2018-06-15T03:48:43.809Z,8.77
2018-06-15T03:51:16.850Z,9.63
2018-06-15T03:53:49.873Z,9.23
2018-06-15T03:56:22.941Z,9.20
2018-06-15T03:58:57.070Z,10.50
2018-06-15T04:01:30.089Z,9.40
2018-06-15T04:04:03.095Z,9.97
2018-06-15T04:06:36.141Z,9.37
2018-06-15T04:09:09.834Z,9.97
2018-06-15T04:11:42.889Z,10.80
2018-06-15T04:14:15.909Z,11.57
2018-06-15T04:16:48.983Z,10.23
2018-06-15T04:19:21.998Z,10.43
2018-06-15T04:21:55.058Z,11.23
2018-06-15T04:24:28.090Z,11.60
2018-06-15T04:27:01.109Z,10.63
2018-06-15T04:29:34.152Z,11.60
2018-06-15T04:32:07.310Z,12.30
2018-06-15T04:34:40.319Z,11.63
2018-06-15T04:37:13.352Z,12.43
2018-06-15T04:39:46.218Z,12.70
2018-06-15T04:42:19.264Z,12.43
2018-06-15T04:44:52.358Z,13.07
2018-06-15T04:47:25.782Z,13.20
2018-06-15T04:49:58.929Z,12.63
2018-06-15T04:52:47.827Z,12.60
2018-06-15T05:01:53.830Z,13.87
2018-06-15T05:04:26.986Z,13.77
2018-06-15T05:07:00.115Z,13.90
2018-06-15T05:09:33.715Z,15.40
2018-06-15T05:12:06.800Z,15.63
2018-06-15T05:14:39.798Z,14.97
2018-06-15T05:17:12.940Z,14.60
2018-06-15T05:19:45.965Z,14.40
2018-06-15T05:22:19.099Z,14.87
2018-06-15T05:24:52.266Z,15.40
2018-06-15T05:27:25.389Z,15.30
2018-06-15T05:29:58.454Z,15.47
2018-06-15T05:32:31.523Z,15.00
2018-06-15T05:35:04.657Z,15.90
2018-06-15T05:37:37.738Z,15.80
2018-06-15T05:40:11.142Z,16.60
2018-06-15T05:42:44.246Z,15.27
2018-06-15T05:45:17.046Z,15.60
2018-06-15T05:47:50.167Z,15.80
2018-06-15T05:50:23.354Z,15.67
2018-06-15T05:52:56.386Z,15.37
2018-06-15T05:55:29.438Z,14.97
2018-06-15T05:58:03.172Z,16.47
2018-06-15T06:00:36.350Z,15.80
2018-06-15T06:03:09.423Z,16.40
2018-06-15T06:05:42.762Z,16.47
2018-06-15T06:08:17.309Z,15.33
2018-06-15T06:10:50.540Z,15.00
2018-06-15T06:13:23.790Z,15.33
2018-06-15T06:15:56.846Z,15.90
2018-06-15T06:18:30.861Z,15.93
2018-06-15T06:21:03.944Z,15.27
2018-06-15T06:23:36.966Z,16.80
2018-06-15T06:26:10.365Z,16.07
2018-06-15T06:28:43.421Z,16.40
2018-06-15T06:31:16.438Z,15.80
2018-06-15T06:33:49.484Z,15.20
2018-06-15T06:36:22.551Z,16.67
2018-06-15T06:38:55.565Z,16.73
2018-06-15T06:41:28.614Z,15.20
2018-06-15T06:44:01.638Z,16.20
2018-06-15T06:46:34.645Z,15.27
2018-06-15T06:49:07.694Z,15.80
2018-06-15T06:51:40.705Z,16.30
2018-06-15T06:54:13.749Z,14.47
2018-06-15T06:56:46.774Z,14.60
2018-06-15T06:59:19.918Z,15.73
2018-06-15T07:01:52.969Z,14.67
2018-06-15T07:04:26.023Z,14.57
2018-06-15T07:12:44.942Z,15.13
2018-06-15T07:15:17.968Z,14.87
2018-06-15T07:17:50.998Z,14.47
2018-06-15T07:20:26.054Z,15.87
2018-06-15T07:22:59.082Z,15.70
2018-06-15T07:25:32.119Z,15.47
2018-06-15T07:28:05.181Z,15.40
2018-06-15T07:30:38.211Z,15.83
2018-06-15T07:33:11.835Z,15.20
2018-06-15T07:35:45.064Z,14.70
2018-06-15T07:38:19.754Z,15.43
2018-06-15T07:40:52.770Z,16.30
2018-06-15T07:43:25.811Z,15.77
2018-06-15T07:45:58.907Z,15.63
2018-06-15T07:48:31.981Z,15.47
2018-06-15T07:51:04.994Z,15.37
2018-06-15T07:53:38.057Z,15.83
2018-06-15T07:56:11.114Z,14.27
2018-06-15T07:58:44.132Z,15.23
2018-06-15T08:01:17.158Z,15.57
2018-06-15T08:03:55.694Z,14.93
2018-06-15T08:06:28.727Z,13.93
2018-06-15T08:09:07.870Z,15.60
2018-06-15T08:11:42.098Z,15.67
2018-06-15T08:14:15.150Z,16.00
2018-06-15T08:16:48.173Z,16.50
2018-06-15T08:19:21.217Z,16.10
2018-06-15T08:21:54.266Z,16.50
2018-06-15T08:24:27.320Z,18.27
2018-06-15T08:27:00.362Z,16.13
2018-06-15T08:29:33.401Z,16.10
2018-06-15T08:32:06.774Z,16.10
2018-06-15T08:34:39.677Z,16.60
2018-06-15T08:37:12.937Z,16.40
2018-06-15T08:39:45.973Z,15.90
2018-06-15T08:42:19.021Z,16.33
2018-06-15T08:44:52.035Z,15.10
2018-06-15T08:47:25.227Z,17.13
2018-06-15T08:49:58.390Z,16.57
2018-06-15T08:52:31.566Z,14.97
2018-06-15T08:55:04.741Z,13.77
2018-06-15T08:57:37.782Z,13.07
2018-06-15T09:00:10.854Z,14.47
2018-06-15T09:02:43.910Z,13.90
2018-06-15T09:05:17.175Z,14.90
2018-06-15T09:07:50.216Z,15.60
2018-06-15T09:10:23.250Z,14.70
2018-06-15T09:12:56.274Z,15.00
2018-06-15T09:15:29.337Z,14.60
2018-06-15T09:18:02.374Z,14.50
2018-06-15T09:20:35.945Z,14.03
2018-06-15T09:23:08.987Z,14.00
2018-06-15T09:25:42.054Z,12.70
2018-06-15T09:28:15.065Z,12.90
2018-06-15T09:30:48.131Z,13.77
2018-06-15T09:33:22.135Z,13.40
2018-06-15T09:35:55.197Z,13.80
2018-06-15T09:38:28.249Z,12.87
2018-06-15T09:41:01.305Z,13.17
2018-06-15T09:43:34.329Z,12.03
2018-06-15T09:46:07.431Z,12.47
2018-06-15T09:48:42.453Z,12.20
2018-06-15T09:51:16.019Z,12.77
2018-06-15T09:53:49.077Z,12.00
2018-06-15T09:56:22.291Z,11.60
2018-06-15T09:58:56.648Z,10.83
2018-06-15T10:01:29.712Z,11.23
2018-06-15T10:04:02.788Z,9.83
2018-06-15T10:06:35.846Z,10.07
2018-06-15T10:09:08.838Z,8.47
2018-06-15T10:11:41.877Z,6.97
2018-06-15T10:14:14.937Z,6.83
2018-06-15T10:16:47.958Z,6.27
2018-06-15T10:19:20.981Z,7.03
2018-06-15T10:21:54.051Z,6.43
2018-06-15T10:24:27.072Z,5.27
2018-06-15T10:27:00.081Z,4.77
2018-06-15T10:29:33.093Z,4.83
2018-06-15T10:32:06.131Z,4.70
2018-06-15T10:34:39.202Z,5.63
2018-06-15T10:37:12.263Z,5.90
2018-06-15T10:39:45.322Z,4.90
2018-06-15T10:42:18.342Z,4.90
2018-06-15T10:44:51.374Z,4.40
2018-06-15T10:47:24.381Z,4.47
2018-06-15T10:49:57.390Z,4.57
2018-06-15T10:52:30.477Z,4.37
2018-06-15T10:55:03.565Z,4.20
2018-06-15T10:57:36.601Z,2.93
2018-06-15T11:00:09.615Z,3.50
2018-06-15T11:02:42.703Z,3.43
2018-06-15T11:05:15.725Z,2.80
2018-06-15T11:07:49.001Z,2.40
2018-06-15T11:10:22.035Z,2.00
2018-06-15T11:12:55.085Z,2.57
2018-06-15T11:15:28.112Z,2.60
2018-06-15T11:18:01.154Z,3.10
2018-06-15T11:20:34.206Z,3.20
2018-06-15T11:23:07.232Z,3.30
2018-06-15T11:25:40.258Z,2.50
2018-06-15T11:28:13.327Z,2.67
2018-06-15T11:30:46.318Z,2.57
2018-06-15T11:33:19.754Z,3.00
2018-06-15T11:35:52.805Z,3.03
2018-06-15T11:38:25.827Z,2.73
2018-06-15T11:40:58.868Z,2.27
2018-06-15T11:43:31.934Z,2.20
2018-06-15T11:46:04.956Z,2.40
2018-06-15T11:48:38.005Z,2.83
2018-06-15T11:51:11.002Z,3.20
2018-06-15T11:53:44.040Z,2.53
2018-06-15T11:56:17.090Z,2.87
2018-06-15T11:58:50.155Z,2.33
2018-06-15T12:01:23.198Z,2.90
2018-06-15T12:03:56.249Z,2.70
2018-06-15T12:06:29.298Z,2.80
2018-06-15T12:09:02.359Z,3.07
2018-06-15T12:11:35.531Z,2.93
2018-06-15T12:14:08.570Z,3.00
2018-06-15T12:16:41.595Z,3.10
2018-06-15T12:19:14.618Z,3.20
2018-06-15T12:21:47.622Z,2.83
2018-06-15T12:24:20.699Z,2.87
2018-06-15T12:26:53.719Z,2.60
2018-06-15T12:29:26.774Z,2.60
2018-06-15T12:31:59.796Z,3.30
2018-06-15T12:34:32.857Z,2.73
2018-06-15T12:37:05.935Z,3.10
2018-06-15T12:39:38.979Z,3.20
2018-06-15T12:42:12.033Z,3.30
2018-06-15T12:44:45.086Z,3.53
2018-06-15T12:47:18.134Z,3.27
2018-06-15T12:49:51.146Z,3.03
2018-06-15T12:52:24.157Z,3.50
2018-06-15T12:54:57.254Z,3.13
2018-06-15T12:57:30.318Z,3.10
2018-06-15T13:00:03.448Z,3.70
2018-06-15T13:02:36.479Z,3.50
2018-06-15T13:05:09.556Z,3.10
2018-06-15T13:07:42.617Z,3.60
2018-06-15T13:10:15.637Z,4.30
2018-06-15T13:12:48.710Z,3.40
2018-06-15T13:15:21.756Z,3.30
2018-06-15T13:17:54.793Z,3.30
2018-06-15T13:20:27.832Z,3.30
2018-06-15T13:23:00.887Z,3.87
2018-06-15T13:25:33.962Z,3.83
2018-06-15T13:28:06.966Z,3.50
2018-06-15T13:30:40.014Z,3.73
2018-06-15T13:33:13.018Z,3.13
2018-06-15T13:35:46.050Z,2.83
2018-06-15T13:38:19.078Z,3.03
2018-06-15T13:40:52.124Z,3.03
2018-06-15T13:43:25.156Z,3.23
2018-06-15T13:45:58.225Z,2.90
2018-06-15T13:48:31.246Z,2.90
2018-06-15T13:51:04.269Z,3.20
2018-06-15T13:53:37.287Z,3.63
2018-06-15T13:56:10.311Z,3.30
2018-06-15T13:58:43.348Z,3.83
2018-06-15T14:01:16.359Z,3.10
2018-06-15T14:03:49.388Z,3.47
2018-06-15T14:06:22.443Z,3.00
2018-06-15T14:08:57.559Z,3.97
2018-06-15T14:11:30.608Z,3.33
2018-06-15T14:14:03.843Z,3.17
2018-06-15T14:16:36.898Z,3.33
2018-06-15T14:19:10.032Z,3.40
2018-06-15T14:21:44.149Z,3.13
2018-06-15T14:24:17.153Z,3.10
2018-06-15T14:26:50.257Z,3.60
2018-06-15T14:29:23.321Z,3.27
2018-06-15T14:31:56.418Z,3.73
2018-06-15T14:34:29.459Z,3.00
2018-06-15T14:37:02.542Z,3.33
2018-06-15T14:39:35.560Z,3.20
2018-06-15T14:42:08.729Z,2.70
2018-06-15T14:44:41.762Z,2.90
2018-06-15T14:47:14.806Z,2.97
2018-06-15T14:49:47.842Z,2.80
2018-06-15T14:52:24.540Z,3.10
2018-06-15T14:54:57.395Z,4.57
2018-06-15T14:57:30.508Z,3.03
2018-06-15T15:00:03.580Z,2.53
2018-06-15T15:02:36.618Z,2.67
2018-06-15T15:05:09.634Z,3.00
2018-06-15T15:07:42.746Z,2.37
2018-06-15T15:10:15.830Z,2.60
2018-06-15T15:12:48.703Z,2.43
2018-06-15T15:15:21.815Z,2.90
2018-06-15T15:17:54.858Z,3.23
2018-06-15T15:20:28.014Z,2.60
2018-06-15T15:23:01.058Z,2.57
2018-06-15T15:25:34.123Z,2.90
2018-06-15T15:28:07.313Z,2.60
2018-06-15T15:30:40.354Z,2.87
2018-06-15T15:33:13.409Z,2.67
2018-06-15T15:35:46.453Z,2.73
2018-06-15T15:38:19.485Z,2.47
2018-06-15T15:40:52.522Z,2.80
2018-06-15T15:43:26.190Z,2.60
2018-06-15T15:45:59.238Z,2.40
2018-06-15T15:48:32.290Z,3.07
2018-06-15T15:51:05.475Z,2.70
2018-06-15T15:53:38.541Z,2.93
2018-06-15T15:56:11.601Z,2.97
2018-06-15T15:58:44.705Z,2.70
2018-06-15T16:01:17.792Z,2.60
2018-06-15T16:03:50.833Z,2.60
2018-06-15T16:06:23.861Z,2.50
2018-06-15T16:08:57.058Z,2.60
2018-06-15T16:11:30.058Z,2.63
2018-06-15T16:14:03.104Z,2.73
2018-06-15T16:16:36.128Z,3.40
2018-06-15T16:19:09.194Z,2.53
2018-06-15T16:21:42.249Z,3.07
2018-06-15T16:24:15.341Z,2.60
2018-06-15T16:26:48.371Z,2.90
2018-06-15T16:29:21.423Z,4.53
2018-06-15T16:31:54.531Z,4.73
2018-06-15T16:34:27.607Z,3.20
2018-06-15T16:37:00.642Z,3.63
2018-06-15T16:39:33.497Z,2.70
2018-06-15T16:42:06.524Z,2.40
2018-06-15T16:44:39.604Z,2.87
2018-06-15T16:47:12.666Z,2.87
2018-06-15T16:49:45.694Z,3.17
2018-06-15T16:52:18.709Z,2.67
2018-06-15T16:54:51.790Z,2.40
2018-06-15T16:57:24.978Z,2.60
2018-06-15T16:59:58.244Z,3.03
2018-06-15T17:02:31.358Z,3.10
2018-06-15T17:05:04.466Z,3.17
2018-06-15T17:07:37.490Z,2.30
2018-06-15T17:10:10.668Z,2.50
2018-06-15T17:12:43.700Z,2.70
2018-06-15T17:15:16.783Z,2.93
2018-06-15T17:17:49.858Z,3.30
2018-06-15T17:20:23.036Z,3.30
2018-06-15T17:22:56.821Z,3.07
2018-06-15T17:25:29.950Z,2.50
2018-06-15T17:28:02.961Z,3.00
2018-06-15T17:30:36.053Z,3.20
2018-06-15T17:33:09.102Z,3.90
2018-06-15T17:35:42.212Z,3.00
2018-06-15T17:38:15.263Z,3.50
2018-06-15T17:40:48.324Z,2.60
2018-06-15T17:43:21.517Z,3.13
2018-06-15T17:45:54.570Z,3.37
2018-06-15T17:48:27.726Z,3.40
2018-06-15T17:51:00.879Z,3.70
2018-06-15T17:53:33.890Z,3.10
2018-06-15T17:56:06.997Z,3.70
2018-06-15T17:58:40.046Z,4.17
2018-06-15T18:01:13.135Z,2.90
2018-06-15T18:03:46.206Z,3.37
2018-06-15T18:06:19.266Z,2.80
2018-06-15T18:08:52.413Z,2.67
2018-06-15T18:11:25.418Z,3.03
2018-06-15T18:13:58.260Z,3.20
2018-06-15T18:16:31.329Z,3.00
2018-06-15T18:19:04.366Z,3.57
2018-06-15T18:21:37.475Z,3.73
2018-06-15T18:24:11.589Z,3.70
2018-06-15T18:26:44.647Z,4.33
2018-06-15T18:29:17.748Z,4.10
2018-06-15T18:31:50.839Z,4.27
2018-06-15T18:34:23.883Z,3.73
2018-06-15T18:36:56.998Z,3.00
2018-06-15T18:39:30.050Z,4.23
2018-06-15T18:42:03.130Z,3.50
2018-06-15T18:44:36.273Z,3.87
2018-06-15T18:47:09.362Z,3.23
2018-06-15T18:49:42.382Z,3.40
2018-06-15T18:52:15.552Z,3.50
2018-06-15T18:54:48.655Z,3.43
2018-06-15T18:57:21.777Z,3.30
2018-06-15T18:59:54.842Z,3.60
2018-06-15T19:02:27.890Z,3.20
2018-06-15T19:05:00.977Z,4.43
2018-06-15T19:07:34.112Z,4.60
2018-06-15T19:10:07.195Z,4.07
2018-06-15T19:12:40.309Z,3.83
2018-06-15T19:15:13.368Z,3.80
2018-06-15T19:17:46.481Z,3.77
2018-06-15T19:20:19.532Z,3.10
2018-06-15T19:22:52.615Z,3.67
2018-06-15T19:25:25.718Z,3.60
2018-06-15T19:27:58.748Z,3.20
2018-06-15T19:30:31.804Z,3.53
2018-06-15T19:33:04.853Z,3.77
2018-06-15T19:35:37.907Z,3.60
2018-06-15T19:38:10.986Z,3.90
2018-06-15T19:40:44.019Z,4.90
2018-06-15T19:43:17.134Z,4.50
2018-06-15T19:45:50.171Z,4.60
2018-06-15T19:48:23.231Z,3.50
2018-06-15T19:50:56.229Z,3.40
2018-06-15T19:53:29.330Z,3.20
2018-06-15T19:56:02.434Z,3.40
2018-06-15T19:58:35.534Z,4.10
2018-06-15T20:01:08.558Z,3.70
2018-06-15T20:03:41.639Z,3.50
2018-06-15T20:06:14.826Z,3.67
2018-06-15T20:08:47.954Z,3.73
2018-06-15T20:11:21.039Z,3.40
2018-06-15T20:13:54.253Z,4.33
2018-06-15T20:16:27.355Z,3.60
2018-06-15T20:19:00.635Z,3.83
2018-06-15T20:21:33.750Z,3.47
2018-06-15T20:24:06.820Z,3.63
2018-06-15T20:26:39.902Z,3.87
2018-06-15T20:29:13.033Z,4.10
2018-06-15T20:31:47.179Z,3.73
2018-06-15T20:34:20.219Z,3.97
2018-06-15T20:36:53.264Z,3.73
2018-06-15T20:39:26.329Z,4.20
2018-06-15T20:41:59.399Z,4.37
2018-06-15T20:44:32.501Z,4.43
2018-06-15T20:47:05.525Z,4.53
2018-06-15T20:49:38.582Z,4.60
2018-06-15T20:52:11.593Z,4.73
2018-06-15T20:54:44.630Z,4.43
2018-06-15T20:57:17.657Z,4.13
2018-06-15T20:59:50.698Z,3.87
2018-06-15T21:02:23.729Z,4.47
2018-06-15T21:04:56.753Z,4.00
2018-06-15T21:07:29.770Z,3.60
2018-06-15T21:10:02.839Z,3.80
2018-06-15T21:12:35.869Z,4.67
2018-06-15T21:15:08.897Z,4.40
2018-06-15T21:17:41.926Z,3.93
2018-06-15T21:20:14.945Z,4.23
2018-06-15T21:22:47.978Z,4.23
2018-06-15T21:25:21.038Z,4.80
2018-06-15T21:27:54.177Z,5.27
2018-06-15T21:30:27.290Z,4.60
2018-06-15T21:33:00.313Z,4.30
2018-06-15T21:35:33.331Z,5.43
2018-06-15T21:38:06.444Z,5.03
2018-06-15T21:40:39.577Z,5.33
2018-06-15T21:43:12.586Z,5.37
2018-06-15T21:45:45.602Z,5.40
2018-06-15T21:48:18.633Z,5.23
2018-06-15T21:50:52.214Z,5.80
2018-06-15T21:53:25.258Z,5.40
2018-06-15T21:55:58.275Z,5.60
2018-06-15T21:58:31.276Z,4.57
2018-06-15T22:01:04.371Z,5.80
2018-06-15T22:03:37.379Z,5.43
2018-06-15T22:06:10.432Z,5.60
2018-06-15T22:08:43.491Z,5.30
2018-06-15T22:11:16.525Z,5.30
2018-06-15T22:13:49.543Z,5.40
2018-06-15T22:16:22.591Z,5.27
2018-06-15T22:18:55.606Z,5.13
2018-06-15T22:21:28.658Z,4.93
2018-06-15T22:24:01.684Z,5.13
2018-06-15T22:26:34.742Z,5.20
2018-06-15T22:29:07.766Z,5.63
2018-06-15T22:31:40.942Z,5.37
2018-06-15T22:34:13.960Z,5.80
2018-06-15T22:36:46.977Z,5.40
2018-06-15T22:39:20.024Z,5.80
2018-06-15T22:41:53.138Z,5.37
2018-06-15T22:44:26.162Z,5.53
2018-06-15T22:46:59.179Z,6.07
2018-06-15T22:49:32.239Z,5.60
2018-06-15T22:52:05.298Z,5.70
2018-06-15T22:54:38.330Z,5.13
2018-06-15T22:57:11.378Z,5.67
2018-06-15T22:59:44.397Z,5.83
2018-06-15T23:02:17.477Z,5.73
2018-06-15T23:04:50.478Z,5.73
2018-06-15T23:07:23.333Z,5.30
2018-06-15T23:09:56.390Z,6.07
2018-06-15T23:12:29.451Z,5.80
2018-06-15T23:15:02.479Z,5.50
2018-06-15T23:17:35.489Z,6.47
2018-06-15T23:20:08.706Z,5.17
2018-06-15T23:22:41.753Z,5.37
2018-06-15T23:25:14.810Z,5.30
2018-06-15T23:27:47.867Z,6.00
2018-06-15T23:30:20.896Z,6.30
2018-06-15T23:32:53.942Z,6.33
2018-06-15T23:35:26.957Z,5.70
2018-06-15T23:38:00.012Z,5.80
2018-06-15T23:40:33.063Z,6.17
2018-06-15T23:43:06.118Z,6.40
2018-06-15T23:45:39.162Z,5.87
2018-06-15T23:48:12.247Z,5.30
2018-06-15T23:50:45.234Z,5.30
2018-06-15T23:53:18.291Z,5.50
2018-06-15T23:55:51.301Z,5.60
2018-06-15T23:58:24.302Z,5.53
